Wilmeth, Texas
Current Conditions -  °F | °C
As of 9:58 AM on Saturday 20 Dec 2014 (Local Time) from KDYS Reporting Station
Overcast Overcast  
Wind Chill: 45°   Ceiling: 1700
Heat Index: 45°   Visibility: 10mi
Dew Point: 37°   Wind: 3mph
Humidity: 72%   Direction: 230°SW
Pressure: 30.22"   Gusts: NA
Location:  31.975°N, 99.9034°W
Report Text: KDYS 201558Z AUTO 23003KT 10SM OVC017 07/03 A3022 RMK AO2 SLP234 T00740027 $
Loading
Personal Weather Stations






























Interactive Weather Map New forecast layout! Learn more

10-Day Weather Forecast

Advertisements
Track Severe Weather on mobile